sensor_id;sensor_type;location;lat;lon;timestamp;pressure;altitude;pressure_sealevel;temperature;humidity
36222;BME280;22266;52.340;4.962;2022-07-18T00:01:59;102443.19;;;21.13;50.79
36222;BME280;22266;52.340;4.962;2022-07-18T00:04:26;102439.63;;;21.12;50.66
36222;BME280;22266;52.340;4.962;2022-07-18T00:06:53;102443.88;;;21.08;50.71
36222;BME280;22266;52.340;4.962;2022-07-18T00:09:19;102436.94;;;21.06;50.65
36222;BME280;22266;52.340;4.962;2022-07-18T00:11:50;102437.41;;;21.03;50.76
36222;BME280;22266;52.340;4.962;2022-07-18T00:14:18;102440.78;;;20.98;50.78
36222;BME280;22266;52.340;4.962;2022-07-18T00:16:45;102438.53;;;20.95;50.77
36222;BME280;22266;52.340;4.962;2022-07-18T00:19:12;102431.59;;;20.92;50.76
36222;BME280;22266;52.340;4.962;2022-07-18T00:21:38;102425.53;;;20.90;50.65
36222;BME280;22266;52.340;4.962;2022-07-18T00:24:05;102426.78;;;20.88;50.73
36222;BME280;22266;52.340;4.962;2022-07-18T00:26:31;102432.03;;;20.89;50.61
36222;BME280;22266;52.340;4.962;2022-07-18T00:28:58;102428.69;;;20.87;50.79
36222;BME280;22266;52.340;4.962;2022-07-18T00:31:25;102426.41;;;20.84;50.83
36222;BME280;22266;52.340;4.962;2022-07-18T00:33:51;102428.75;;;20.81;51.04
36222;BME280;22266;52.340;4.962;2022-07-18T00:36:18;102423.31;;;20.74;51.06
36222;BME280;22266;52.340;4.962;2022-07-18T00:38:44;102417.09;;;20.67;51.30
36222;BME280;22266;52.340;4.962;2022-07-18T00:41:14;102416.91;;;20.62;51.54
36222;BME280;22266;52.340;4.962;2022-07-18T00:43:41;102410.44;;;20.56;51.64
36222;BME280;22266;52.340;4.962;2022-07-18T00:46:08;102408.97;;;20.54;51.66
36222;BME280;22266;52.340;4.962;2022-07-18T00:48:39;102408.38;;;20.52;51.32
36222;BME280;22266;52.340;4.962;2022-07-18T00:51:06;102400.16;;;20.52;51.45
36222;BME280;22266;52.340;4.962;2022-07-18T00:53:32;102398.25;;;20.52;51.40
36222;BME280;22266;52.340;4.962;2022-07-18T00:56:01;102398.03;;;20.54;51.44
36222;BME280;22266;52.340;4.962;2022-07-18T00:58:28;102398.88;;;20.54;51.51
36222;BME280;22266;52.340;4.962;2022-07-18T01:00:55;102391.72;;;20.53;51.31
36222;BME280;22266;52.340;4.962;2022-07-18T01:03:40;102401.00;;;20.52;51.41
36222;BME280;22266;52.340;4.962;2022-07-18T01:06:07;102394.69;;;20.52;51.39
36222;BME280;22266;52.340;4.962;2022-07-18T01:08:34;102396.78;;;20.49;51.48
36222;BME280;22266;52.340;4.962;2022-07-18T01:11:02;102398.91;;;20.47;51.55
36222;BME280;22266;52.340;4.962;2022-07-18T01:13:28;102411.94;;;20.45;51.51
36222;BME280;22266;52.340;4.962;2022-07-18T01:15:55;102396.84;;;20.43;51.49
36222;BME280;22266;52.340;4.962;2022-07-18T01:18:21;102398.09;;;20.40;51.63
36222;BME280;22266;52.340;4.962;2022-07-18T01:20:48;102390.97;;;20.39;51.56
36222;BME280;22266;52.340;4.962;2022-07-18T01:23:14;102386.75;;;20.37;51.57
36222;BME280;22266;52.340;4.962;2022-07-18T01:25:41;102392.22;;;20.37;51.57
36222;BME280;22266;52.340;4.962;2022-07-18T01:28:08;102388.66;;;20.36;51.55
36222;BME280;22266;52.340;4.962;2022-07-18T01:30:35;102381.75;;;20.34;51.42
36222;BME280;22266;52.340;4.962;2022-07-18T01:33:02;102382.78;;;20.33;51.29
36222;BME280;22266;52.340;4.962;2022-07-18T01:35:29;102387.44;;;20.32;51.05
36222;BME280;22266;52.340;4.962;2022-07-18T01:37:58;102388.25;;;20.33;50.99
36222;BME280;22266;52.340;4.962;2022-07-18T01:40:26;102386.59;;;20.32;51.02
36222;BME280;22266;52.340;4.962;2022-07-18T01:42:52;102389.56;;;20.30;50.70
36222;BME280;22266;52.340;4.962;2022-07-18T01:45:19;102386.00;;;20.30;50.70
36222;BME280;22266;52.340;4.962;2022-07-18T01:47:47;102386.00;;;20.30;50.54
36222;BME280;22266;52.340;4.962;2022-07-18T01:50:14;102387.28;;;20.27;50.72
36222;BME280;22266;52.340;4.962;2022-07-18T01:52:41;102381.41;;;20.23;50.79
36222;BME280;22266;52.340;4.962;2022-07-18T01:55:08;102379.72;;;20.22;50.64
36222;BME280;22266;52.340;4.962;2022-07-18T01:57:36;102373.88;;;20.19;50.81
36222;BME280;22266;52.340;4.962;2022-07-18T02:00:04;102372.41;;;20.16;50.41
36222;BME280;22266;52.340;4.962;2022-07-18T02:02:31;102369.06;;;20.14;50.56
36222;BME280;22266;52.340;4.962;2022-07-18T02:04:58;102367.59;;;20.12;50.34
36222;BME280;22266;52.340;4.962;2022-07-18T02:07:33;102365.09;;;20.10;50.25
36222;BME280;22266;52.340;4.962;2022-07-18T02:10:01;102369.72;;;20.10;50.16
36222;BME280;22266;52.340;4.962;2022-07-18T02:12:28;102368.03;;;20.09;50.27
36222;BME280;22266;52.340;4.962;2022-07-18T02:14:54;102369.09;;;20.08;50.01
36222;BME280;22266;52.340;4.962;2022-07-18T02:17:21;102357.31;;;20.07;50.31
36222;BME280;22266;52.340;4.962;2022-07-18T02:19:48;102362.78;;;20.07;50.31
36222;BME280;22266;52.340;4.962;2022-07-18T02:22:14;102357.56;;;20.06;50.17
36222;BME280;22266;52.340;4.962;2022-07-18T02:24:41;102360.50;;;20.04;50.27
36222;BME280;22266;52.340;4.962;2022-07-18T02:27:08;102359.88;;;20.02;50.18
36222;BME280;22266;52.340;4.962;2022-07-18T02:29:36;102358.19;;;20.01;49.93
36222;BME280;22266;52.340;4.962;2022-07-18T02:32:03;102351.91;;;20.00;49.83
36222;BME280;22266;52.340;4.962;2022-07-18T02:34:30;102354.63;;;20.00;49.75
36222;BME280;22266;52.340;4.962;2022-07-18T02:36:57;102353.78;;;20.00;49.74
36222;BME280;22266;52.340;4.962;2022-07-18T02:39:23;102351.06;;;20.00;49.78
36222;BME280;22266;52.340;4.962;2022-07-18T02:41:50;102356.13;;;19.96;49.60
36222;BME280;22266;52.340;4.962;2022-07-18T02:44:17;102350.88;;;19.95;49.71
36222;BME280;22266;52.340;4.962;2022-07-18T02:46:43;102357.00;;;19.90;49.63
36222;BME280;22266;52.340;4.962;2022-07-18T02:49:10;102346.53;;;19.87;49.67
36222;BME280;22266;52.340;4.962;2022-07-18T02:52:03;102351.38;;;19.85;49.86
36222;BME280;22266;52.340;4.962;2022-07-18T02:54:32;102349.47;;;19.86;49.62
36222;BME280;22266;52.340;4.962;2022-07-18T02:57:00;102348.41;;;19.87;49.40
36222;BME280;22266;52.340;4.962;2022-07-18T02:59:27;102346.75;;;19.86;49.37
36222;BME280;22266;52.340;4.962;2022-07-18T03:01:54;102341.94;;;19.81;49.44
36222;BME280;22266;52.340;4.962;2022-07-18T03:04:22;102333.94;;;19.80;49.70
36222;BME280;22266;52.340;4.962;2022-07-18T03:06:49;102336.91;;;19.78;49.83
36222;BME280;22266;52.340;4.962;2022-07-18T03:09:16;102332.72;;;19.75;49.89
36222;BME280;22266;52.340;4.962;2022-07-18T03:11:43;102331.28;;;19.73;49.80
36222;BME280;22266;52.340;4.962;2022-07-18T03:14:10;102319.09;;;19.69;49.97
36222;BME280;22266;52.340;4.962;2022-07-18T03:16:36;102331.31;;;19.66;50.09
36222;BME280;22266;52.340;4.962;2022-07-18T03:19:03;102331.31;;;19.66;49.85
36222;BME280;22266;52.340;4.962;2022-07-18T03:21:29;102319.75;;;19.64;50.16
36222;BME280;22266;52.340;4.962;2022-07-18T03:23:56;102318.91;;;19.64;50.07
36222;BME280;22266;52.340;4.962;2022-07-18T03:26:23;102315.34;;;19.63;50.05
36222;BME280;22266;52.340;4.962;2022-07-18T03:28:49;102315.72;;;19.60;50.08
36222;BME280;22266;52.340;4.962;2022-07-18T03:31:16;102305.28;;;19.57;50.20
36222;BME280;22266;52.340;4.962;2022-07-18T03:33:42;102305.69;;;19.54;50.35
36222;BME280;22266;52.340;4.962;2022-07-18T03:36:09;102295.84;;;19.53;50.32
36222;BME280;22266;52.340;4.962;2022-07-18T03:38:35;102296.88;;;19.52;50.13
36222;BME280;22266;52.340;4.962;2022-07-18T03:41:03;102297.94;;;19.51;50.05
36222;BME280;22266;52.340;4.962;2022-07-18T03:43:29;102286.59;;;19.47;49.94
36222;BME280;22266;52.340;4.962;2022-07-18T03:45:57;102288.50;;;19.47;49.87
36222;BME280;22266;52.340;4.962;2022-07-18T03:48:23;102284.31;;;19.44;49.88
36222;BME280;22266;52.340;4.962;2022-07-18T03:50:50;102273.38;;;19.44;49.89
36222;BME280;22266;52.340;4.962;2022-07-18T03:53:17;102279.72;;;19.45;50.04
36222;BME280;22266;52.340;4.962;2022-07-18T03:55:43;102278.22;;;19.42;49.99
36222;BME280;22266;52.340;4.962;2022-07-18T03:58:10;102272.13;;;19.40;50.15
36222;BME280;22266;52.340;4.962;2022-07-18T04:00:36;102279.50;;;19.40;50.01
36222;BME280;22266;52.340;4.962;2022-07-18T04:03:03;102268.56;;;19.40;49.74
36222;BME280;22266;52.340;4.962;2022-07-18T04:05:31;102269.63;;;19.39;49.94
36222;BME280;22266;52.340;4.962;2022-07-18T04:07:57;102269.63;;;19.39;49.73
36222;BME280;22266;52.340;4.962;2022-07-18T04:10:24;102273.63;;;19.36;49.68
36222;BME280;22266;52.340;4.962;2022-07-18T04:12:52;102272.19;;;19.34;49.58
36222;BME280;22266;52.340;4.962;2022-07-18T04:15:24;102270.94;;;19.30;49.39
36222;BME280;22266;52.340;4.962;2022-07-18T04:17:52;102279.75;;;19.32;49.06
36222;BME280;22266;52.340;4.962;2022-07-18T04:20:20;102274.09;;;19.33;48.75
36222;BME280;22266;52.340;4.962;2022-07-18T04:22:59;102271.34;;;19.33;48.68
36222;BME280;22266;52.340;4.962;2022-07-18T04:25:32;102276.19;;;19.31;48.67
36222;BME280;22266;52.340;4.962;2022-07-18T04:28:01;102275.97;;;19.33;48.51
36222;BME280;22266;52.340;4.962;2022-07-18T04:30:28;102280.16;;;19.35;48.54
36222;BME280;22266;52.340;4.962;2022-07-18T04:32:55;102277.22;;;19.37;48.82
36222;BME280;22266;52.340;4.962;2022-07-18T04:35:23;102282.03;;;19.41;48.72
36222;BME280;22266;52.340;4.962;2022-07-18T04:37:51;102287.50;;;19.41;48.36
36222;BME280;22266;52.340;4.962;2022-07-18T04:40:18;102278.47;;;19.41;48.47
36222;BME280;22266;52.340;4.962;2022-07-18T04:42:45;102283.47;;;19.44;48.41
36222;BME280;22266;52.340;4.962;2022-07-18T04:45:12;102293.56;;;19.43;48.86
36222;BME280;22266;52.340;4.962;2022-07-18T04:47:39;102291.88;;;19.42;49.12
36222;BME280;22266;52.340;4.962;2022-07-18T04:50:06;102287.69;;;19.40;49.29
36222;BME280;22266;52.340;4.962;2022-07-18T04:52:42;102286.44;;;19.36;49.68
36222;BME280;22266;52.340;4.962;2022-07-18T04:55:10;102293.19;;;19.33;49.73
36222;BME280;22266;52.340;4.962;2022-07-18T04:57:37;102295.28;;;19.31;50.10
36222;BME280;22266;52.340;4.962;2022-07-18T05:00:06;102287.53;;;19.28;50.38
36222;BME280;22266;52.340;4.962;2022-07-18T05:02:33;102288.00;;;19.25;50.71
36222;BME280;22266;52.340;4.962;2022-07-18T05:05:00;102294.72;;;19.22;50.95
36222;BME280;22266;52.340;4.962;2022-07-18T05:07:26;102288.66;;;19.20;51.14
36222;BME280;22266;52.340;4.962;2022-07-18T05:09:52;102289.47;;;19.21;51.42
36222;BME280;22266;52.340;4.962;2022-07-18T05:12:19;102283.19;;;19.20;51.21
36222;BME280;22266;52.340;4.962;2022-07-18T05:14:50;102277.72;;;19.20;50.93
36222;BME280;22266;52.340;4.962;2022-07-18T05:17:25;102272.44;;;19.25;50.89
36222;BME280;22266;52.340;4.962;2022-07-18T05:19:52;102272.00;;;19.29;50.75
36222;BME280;22266;52.340;4.962;2022-07-18T05:22:18;102274.94;;;19.34;51.05
36222;BME280;22266;52.340;4.962;2022-07-18T05:24:45;102278.06;;;19.37;50.93
36222;BME280;22266;52.340;4.962;2022-07-18T05:27:11;102266.47;;;19.42;50.84
36222;BME280;22266;52.340;4.962;2022-07-18T05:29:38;102267.72;;;19.46;50.73
36222;BME280;22266;52.340;4.962;2022-07-18T05:32:05;102261.59;;;19.50;51.06
36222;BME280;22266;52.340;4.962;2022-07-18T05:34:31;102259.25;;;19.54;51.16
36222;BME280;22266;52.340;4.962;2022-07-18T05:36:58;102253.38;;;19.57;50.84
36222;BME280;22266;52.340;4.962;2022-07-18T05:39:24;102245.16;;;19.64;50.70
36222;BME280;22266;52.340;4.962;2022-07-18T05:41:52;102252.41;;;19.76;50.30
36222;BME280;22266;52.340;4.962;2022-07-18T05:44:18;102247.47;;;19.92;50.09
36222;BME280;22266;52.340;4.962;2022-07-18T05:46:47;102258.25;;;20.12;49.89
36222;BME280;22266;52.340;4.962;2022-07-18T05:49:14;102254.88;;;20.35;50.13
36222;BME280;22266;52.340;4.962;2022-07-18T05:51:41;102258.88;;;20.57;49.43
36222;BME280;22266;52.340;4.962;2022-07-18T05:54:08;102256.31;;;20.81;48.83
36222;BME280;22266;52.340;4.962;2022-07-18T05:56:34;102258.97;;;21.06;48.09
36222;BME280;22266;52.340;4.962;2022-07-18T05:59:02;102253.22;;;21.26;47.21
36222;BME280;22266;52.340;4.962;2022-07-18T06:01:29;102254.91;;;21.45;47.54
36222;BME280;22266;52.340;4.962;2022-07-18T06:03:55;102251.59;;;21.55;46.93
36222;BME280;22266;52.340;4.962;2022-07-18T06:06:22;102255.53;;;21.59;46.13
36222;BME280;22266;52.340;4.962;2022-07-18T06:08:50;102242.19;;;21.62;45.70
36222;BME280;22266;52.340;4.962;2022-07-18T06:11:16;102250.59;;;21.67;45.79
36222;BME280;22266;52.340;4.962;2022-07-18T06:13:43;102249.63;;;21.73;45.52
36222;BME280;22266;52.340;4.962;2022-07-18T06:16:09;102258.81;;;21.79;45.23
36222;BME280;22266;52.340;4.962;2022-07-18T06:18:36;102250.25;;;21.76;45.34
36222;BME280;22266;52.340;4.962;2022-07-18T06:21:03;102253.00;;;21.76;45.45
36222;BME280;22266;52.340;4.962;2022-07-18T06:23:30;102257.84;;;21.73;45.15
36222;BME280;22266;52.340;4.962;2022-07-18T06:25:58;102251.28;;;21.75;45.41
36222;BME280;22266;52.340;4.962;2022-07-18T06:28:24;102246.88;;;21.73;45.47
36222;BME280;22266;52.340;4.962;2022-07-18T06:30:52;102245.09;;;21.67;45.51
36222;BME280;22266;52.340;4.962;2022-07-18T06:33:18;102246.75;;;21.68;45.68
36222;BME280;22266;52.340;4.962;2022-07-18T06:35:45;102237.00;;;21.72;46.16
36222;BME280;22266;52.340;4.962;2022-07-18T06:38:14;102240.31;;;21.75;45.54
36222;BME280;22266;52.340;4.962;2022-07-18T06:40:41;102236.75;;;21.74;45.35
36222;BME280;22266;52.340;4.962;2022-07-18T06:43:08;102231.66;;;21.78;45.37
36222;BME280;22266;52.340;4.962;2022-07-18T06:45:35;102223.31;;;21.84;45.48
36222;BME280;22266;52.340;4.962;2022-07-18T06:48:02;102229.50;;;21.91;45.54
36222;BME280;22266;52.340;4.962;2022-07-18T06:50:28;102238.72;;;21.97;45.32
36222;BME280;22266;52.340;4.962;2022-07-18T06:52:56;102238.59;;;22.04;45.53
36222;BME280;22266;52.340;4.962;2022-07-18T06:55:22;102240.16;;;22.11;45.40
36222;BME280;22266;52.340;4.962;2022-07-18T06:57:49;102236.72;;;22.16;45.38
36222;BME280;22266;52.340;4.962;2022-07-18T07:00:15;102233.50;;;22.19;45.39
36222;BME280;22266;52.340;4.962;2022-07-18T07:02:47;102237.09;;;22.19;44.76
36222;BME280;22266;52.340;4.962;2022-07-18T07:05:16;102232.69;;;22.18;44.48
36222;BME280;22266;52.340;4.962;2022-07-18T07:07:43;102229.22;;;22.23;44.13
36222;BME280;22266;52.340;4.962;2022-07-18T07:10:17;102232.94;;;22.29;44.70
36222;BME280;22266;52.340;4.962;2022-07-18T07:12:48;102227.19;;;22.30;43.87
36222;BME280;22266;52.340;4.962;2022-07-18T07:15:18;102230.88;;;22.36;44.41
36222;BME280;22266;52.340;4.962;2022-07-18T07:17:44;102236.72;;;22.39;44.75
36222;BME280;22266;52.340;4.962;2022-07-18T07:20:12;102242.94;;;22.46;44.95
36222;BME280;22266;52.340;4.962;2022-07-18T07:22:50;102236.13;;;22.49;43.60
36222;BME280;22266;52.340;4.962;2022-07-18T07:25:18;102238.63;;;22.51;42.51
36222;BME280;22266;52.340;4.962;2022-07-18T07:27:45;102246.03;;;22.50;42.40
36222;BME280;22266;52.340;4.962;2022-07-18T07:30:13;102243.19;;;22.45;42.14
36222;BME280;22266;52.340;4.962;2022-07-18T07:32:42;102254.63;;;22.42;42.64
36222;BME280;22266;52.340;4.962;2022-07-18T07:35:10;102251.16;;;22.35;42.17
36222;BME280;22266;52.340;4.962;2022-07-18T07:37:39;102255.47;;;22.31;42.20
36222;BME280;22266;52.340;4.962;2022-07-18T07:40:07;102261.31;;;22.34;41.90
36222;BME280;22266;52.340;4.962;2022-07-18T07:42:34;102257.13;;;22.43;42.96
36222;BME280;22266;52.340;4.962;2022-07-18T07:45:01;102246.41;;;22.54;43.03
36222;BME280;22266;52.340;4.962;2022-07-18T07:47:27;102247.94;;;22.61;43.30
36222;BME280;22266;52.340;4.962;2022-07-18T07:49:55;102248.63;;;22.68;42.37
36222;BME280;22266;52.340;4.962;2022-07-18T07:52:22;102242.75;;;22.77;42.86
36222;BME280;22266;52.340;4.962;2022-07-18T07:54:51;102238.34;;;22.87;42.76
36222;BME280;22266;52.340;4.962;2022-07-18T07:57:18;102236.56;;;22.93;42.05
36222;BME280;22266;52.340;4.962;2022-07-18T07:59:44;102230.19;;;23.04;42.15
36222;BME280;22266;52.340;4.962;2022-07-18T08:02:11;102233.63;;;23.11;41.74
36222;BME280;22266;52.340;4.962;2022-07-18T08:04:38;102225.84;;;23.20;41.55
36222;BME280;22266;52.340;4.962;2022-07-18T08:07:04;102237.78;;;23.26;42.11
36222;BME280;22266;52.340;4.962;2022-07-18T08:09:31;102231.94;;;23.22;41.30
36222;BME280;22266;52.340;4.962;2022-07-18T08:11:57;102235.50;;;23.23;41.19
36222;BME280;22266;52.340;4.962;2022-07-18T08:14:24;102230.09;;;23.28;41.92
36222;BME280;22266;52.340;4.962;2022-07-18T08:16:50;102231.13;;;23.38;41.63
36222;BME280;22266;52.340;4.962;2022-07-18T08:19:17;102230.22;;;23.50;40.73
36222;BME280;22266;52.340;4.962;2022-07-18T08:21:43;102232.09;;;23.61;40.73
36222;BME280;22266;52.340;4.962;2022-07-18T08:24:09;102226.88;;;23.76;40.63
36222;BME280;22266;52.340;4.962;2022-07-18T08:26:36;102238.31;;;23.85;39.89
36222;BME280;22266;52.340;4.962;2022-07-18T08:29:06;102239.47;;;23.89;40.10
36222;BME280;22266;52.340;4.962;2022-07-18T08:31:33;102243.41;;;23.93;40.48
36222;BME280;22266;52.340;4.962;2022-07-18T08:34:01;102240.91;;;23.91;39.62
36222;BME280;22266;52.340;4.962;2022-07-18T08:36:27;102245.22;;;23.87;39.95
36222;BME280;22266;52.340;4.962;2022-07-18T08:38:54;102237.75;;;23.83;40.87
36222;BME280;22266;52.340;4.962;2022-07-18T08:41:22;102242.97;;;23.84;40.96
36222;BME280;22266;52.340;4.962;2022-07-18T08:43:50;102239.41;;;23.84;41.20
36222;BME280;22266;52.340;4.962;2022-07-18T08:46:21;102241.81;;;23.80;40.90
36222;BME280;22266;52.340;4.962;2022-07-18T08:48:49;102237.06;;;23.76;41.11
36222;BME280;22266;52.340;4.962;2022-07-18T08:51:16;102236.47;;;23.74;41.55
36222;BME280;22266;52.340;4.962;2022-07-18T08:53:43;102234.72;;;23.67;41.90
36222;BME280;22266;52.340;4.962;2022-07-18T08:56:12;102230.50;;;23.65;41.98
36222;BME280;22266;52.340;4.962;2022-07-18T08:58:38;102231.13;;;23.67;41.81
36222;BME280;22266;52.340;4.962;2022-07-18T09:01:11;102229.94;;;23.63;40.93
36222;BME280;22266;52.340;4.962;2022-07-18T09:03:38;102237.59;;;23.61;40.81
36222;BME280;22266;52.340;4.962;2022-07-18T09:06:07;102231.84;;;23.62;40.79
36222;BME280;22266;52.340;4.962;2022-07-18T09:08:34;102226.94;;;23.64;41.35
36222;BME280;22266;52.340;4.962;2022-07-18T09:11:03;102222.25;;;23.65;41.24
36222;BME280;22266;52.340;4.962;2022-07-18T09:16:11;102225.19;;;23.58;42.28
36222;BME280;22266;52.340;4.962;2022-07-18T09:18:44;102232.44;;;23.64;41.84
36222;BME280;22266;52.340;4.962;2022-07-18T09:21:16;102222.81;;;23.79;41.15
36222;BME280;22266;52.340;4.962;2022-07-18T09:23:47;102220.28;;;23.94;41.00
36222;BME280;22266;52.340;4.962;2022-07-18T09:26:41;102225.28;;;24.14;39.83
36222;BME280;22266;52.340;4.962;2022-07-18T09:29:08;102229.09;;;24.30;39.69
36222;BME280;22266;52.340;4.962;2022-07-18T09:31:55;102220.56;;;24.43;38.40
36222;BME280;22266;52.340;4.962;2022-07-18T09:34:36;102217.41;;;24.56;38.13
36222;BME280;22266;52.340;4.962;2022-07-18T09:37:03;102212.84;;;24.67;38.35
36222;BME280;22266;52.340;4.962;2022-07-18T09:39:31;102221.53;;;24.76;37.80
36222;BME280;22266;52.340;4.962;2022-07-18T09:42:17;102214.28;;;24.91;36.73
36222;BME280;22266;52.340;4.962;2022-07-18T09:44:57;102209.06;;;24.95;37.04
36222;BME280;22266;52.340;4.962;2022-07-18T09:47:24;102197.56;;;24.98;37.37
36222;BME280;22266;52.340;4.962;2022-07-18T09:49:51;102208.88;;;25.02;37.23
36222;BME280;22266;52.340;4.962;2022-07-18T09:52:17;102200.44;;;25.08;37.04
36222;BME280;22266;52.340;4.962;2022-07-18T09:54:43;102203.00;;;25.15;37.14
36222;BME280;22266;52.340;4.962;2022-07-18T09:57:22;102202.03;;;25.26;36.81
36222;BME280;22266;52.340;4.962;2022-07-18T09:59:49;102204.91;;;25.36;36.92
36222;BME280;22266;52.340;4.962;2022-07-18T10:02:16;102199.75;;;25.45;37.19
36222;BME280;22266;52.340;4.962;2022-07-18T10:04:44;102198.94;;;25.50;37.34
36222;BME280;22266;52.340;4.962;2022-07-18T10:07:10;102203.69;;;25.54;36.68
36222;BME280;22266;52.340;4.962;2022-07-18T10:09:38;102190.50;;;25.61;36.30
36222;BME280;22266;52.340;4.962;2022-07-18T10:12:05;102192.78;;;25.70;35.49
36222;BME280;22266;52.340;4.962;2022-07-18T10:14:32;102196.09;;;25.72;36.65
36222;BME280;22266;52.340;4.962;2022-07-18T10:16:59;102196.41;;;25.75;36.31
36222;BME280;22266;52.340;4.962;2022-07-18T10:19:26;102196.25;;;25.87;35.06
36222;BME280;22266;52.340;4.962;2022-07-18T10:21:53;102194.66;;;25.96;35.00
36222;BME280;22266;52.340;4.962;2022-07-18T10:24:23;102192.28;;;26.10;34.59
36222;BME280;22266;52.340;4.962;2022-07-18T10:29:38;102193.16;;;26.16;35.21
36222;BME280;22266;52.340;4.962;2022-07-18T10:32:05;102179.66;;;26.19;34.21
36222;BME280;22266;52.340;4.962;2022-07-18T10:34:36;102183.81;;;26.22;34.14
36222;BME280;22266;52.340;4.962;2022-07-18T10:47:10;102185.66;;;26.53;31.09
36222;BME280;22266;52.340;4.962;2022-07-18T11:00:34;102181.59;;;26.76;29.80
36222;BME280;22266;52.340;4.962;2022-07-18T11:03:06;102184.09;;;26.78;28.64
36222;BME280;22266;52.340;4.962;2022-07-18T11:05:42;102185.50;;;26.85;27.18
36222;BME280;22266;52.340;4.962;2022-07-18T11:16:04;102176.72;;;27.09;26.58
36222;BME280;22266;52.340;4.962;2022-07-18T11:21:34;102167.94;;;27.17;25.72
36222;BME280;22266;52.340;4.962;2022-07-18T11:24:09;102171.81;;;27.26;27.23
36222;BME280;22266;52.340;4.962;2022-07-18T11:26:38;102166.56;;;27.30;28.60
36222;BME280;22266;52.340;4.962;2022-07-18T11:29:10;102162.97;;;27.34;27.95
36222;BME280;22266;52.340;4.962;2022-07-18T11:31:47;102169.34;;;27.40;26.60
36222;BME280;22266;52.340;4.962;2022-07-18T11:34:15;102164.91;;;27.49;27.74
36222;BME280;22266;52.340;4.962;2022-07-18T11:36:43;102165.75;;;27.60;28.22
36222;BME280;22266;52.340;4.962;2022-07-18T11:39:10;102163.53;;;27.72;27.87
36222;BME280;22266;52.340;4.962;2022-07-18T11:41:38;102153.31;;;27.83;27.50
36222;BME280;22266;52.340;4.962;2022-07-18T11:44:17;102160.50;;;27.89;28.65
36222;BME280;22266;52.340;4.962;2022-07-18T11:46:44;102155.00;;;27.84;28.61
36222;BME280;22266;52.340;4.962;2022-07-18T11:49:11;102153.84;;;27.90;29.01
36222;BME280;22266;52.340;4.962;2022-07-18T11:51:44;102150.25;;;28.00;30.08
36222;BME280;22266;52.340;4.962;2022-07-18T11:54:11;102149.38;;;28.15;29.80
36222;BME280;22266;52.340;4.962;2022-07-18T11:56:50;102146.59;;;28.20;29.42
36222;BME280;22266;52.340;4.962;2022-07-18T11:59:17;102142.97;;;28.29;30.14
36222;BME280;22266;52.340;4.962;2022-07-18T12:01:45;102137.44;;;28.29;30.44
36222;BME280;22266;52.340;4.962;2022-07-18T12:04:18;102139.63;;;28.32;29.40
36222;BME280;22266;52.340;4.962;2022-07-18T12:06:45;102130.78;;;28.25;30.14
36222;BME280;22266;52.340;4.962;2022-07-18T12:09:26;102136.34;;;28.25;29.25
36222;BME280;22266;52.340;4.962;2022-07-18T12:11:52;102136.56;;;28.34;29.60
36222;BME280;22266;52.340;4.962;2022-07-18T12:14:39;102135.50;;;28.40;29.67
36222;BME280;22266;52.340;4.962;2022-07-18T12:17:06;102126.06;;;28.41;29.32
36222;BME280;22266;52.340;4.962;2022-07-18T12:19:36;102119.09;;;28.44;29.37
36222;BME280;22266;52.340;4.962;2022-07-18T12:22:04;102124.34;;;28.50;29.35
36222;BME280;22266;52.340;4.962;2022-07-18T12:24:37;102127.09;;;28.55;29.32
36222;BME280;22266;52.340;4.962;2022-07-18T12:27:09;102123.22;;;28.56;29.87
36222;BME280;22266;52.340;4.962;2022-07-18T12:32:52;102125.13;;;28.56;29.29
36222;BME280;22266;52.340;4.962;2022-07-18T12:35:34;102122.91;;;28.63;30.20
36222;BME280;22266;52.340;4.962;2022-07-18T12:38:14;102114.28;;;28.70;30.06
36222;BME280;22266;52.340;4.962;2022-07-18T12:40:53;102108.97;;;28.78;30.51
36222;BME280;22266;52.340;4.962;2022-07-18T12:45:53;102106.66;;;29.01;29.93
36222;BME280;22266;52.340;4.962;2022-07-18T12:48:20;102111.63;;;28.99;28.66
36222;BME280;22266;52.340;4.962;2022-07-18T12:51:05;102113.53;;;29.03;28.75
36222;BME280;22266;52.340;4.962;2022-07-18T12:53:34;102099.00;;;29.17;29.24
36222;BME280;22266;52.340;4.962;2022-07-18T12:56:02;102098.19;;;29.16;28.89
36222;BME280;22266;52.340;4.962;2022-07-18T12:58:29;102096.50;;;29.20;28.51
36222;BME280;22266;52.340;4.962;2022-07-18T13:00:55;102092.63;;;29.21;28.65
36222;BME280;22266;52.340;4.962;2022-07-18T13:03:32;102099.50;;;29.24;28.14
36222;BME280;22266;52.340;4.962;2022-07-18T13:05:58;102098.13;;;29.26;28.06
36222;BME280;22266;52.340;4.962;2022-07-18T13:08:25;102091.16;;;29.29;28.73
36222;BME280;22266;52.340;4.962;2022-07-18T13:10:53;102088.84;;;29.41;28.18
36222;BME280;22266;52.340;4.962;2022-07-18T13:13:20;102093.53;;;29.41;27.73
36222;BME280;22266;52.340;4.962;2022-07-18T13:15:46;102087.16;;;29.45;28.02
36222;BME280;22266;52.340;4.962;2022-07-18T13:18:13;102087.63;;;29.58;28.42
36222;BME280;22266;52.340;4.962;2022-07-18T13:20:40;102083.06;;;29.67;28.68
36222;BME280;22266;52.340;4.962;2022-07-18T13:23:07;102077.41;;;29.77;28.39
36222;BME280;22266;52.340;4.962;2022-07-18T13:25:33;102081.41;;;29.90;28.83
36222;BME280;22266;52.340;4.962;2022-07-18T13:28:00;102078.84;;;29.98;28.42
36222;BME280;22266;52.340;4.962;2022-07-18T13:30:26;102076.50;;;30.05;27.57
36222;BME280;22266;52.340;4.962;2022-07-18T13:32:53;102072.09;;;30.04;26.92
36222;BME280;22266;52.340;4.962;2022-07-18T13:35:20;102075.03;;;30.13;27.41
36222;BME280;22266;52.340;4.962;2022-07-18T13:37:47;102073.31;;;30.22;27.16
36222;BME280;22266;52.340;4.962;2022-07-18T13:40:14;102067.75;;;30.22;26.63